Aktualne dane pomiarowe

Uwaga, wersja testowa! Automatyczne pobieranie danych za pomocą narzędzi lub skryptów to umożliwiających jest zabronione.

Dane meteo z obszaru Polski uzyskane na podstawie depesz SYNOP pobieranych co godzinę z NWS. Najedź myszką na symbol przedstawiony w tabeli, aby uzyskać informacje co do jego znaczenia. Prosimy pamiętać, że to testowa wersja strony, która jeszcze nie jest ukończona. Stworzono również jest krótki FAQ dotyczący korzystania z tej podstrony Anomalie temperatury w chwili obecnej odniesione są do okresu referencyjnego 1951-2016. Okres ten będzie później zmieniony na 1981-2010. Kliknij ikonę aby pobrać plik CSV. Kliknij ikonę aby wygenerować mapę synoptyczną dla danego terminu.

Wybierz Datę:    

        

Lublin-Radawiec (12495)

Dane terminowe dla wybranej stacji. Kliknij datę, aby otrzymać dane z tego terminu dla wszystkich stacji.

TemperaturaZachmurzenieWiatrCiśnienieOpadyPogoda
 Data t td wb tx tn tg rh  Nt Nl Cl Cm Ch ws wd g1 g2 wx mslp ppp ch 24h 12h t ww ww w1 w2  
2019-06-22 23:00:00 16.6 11.2 13.2--- 7050.0wx-wx3wx--31020.5 992.0 0.4---------
2019-06-22 22:00:00 17.8 11.5 13.8--- 6750.0wxwxwxwx3wx--31020.2 991.9 0.1---------
2019-06-22 21:00:00 18.4 12.0 14.3--- 6650.0wxwxwxwx2wx--21020.2 991.9 0.4---------
2019-06-22 20:00:00 19.2 12.1 14.7--- 6450.0wxwxwxwxwx2wx--21019.8 991.6 0.0---------
2019-06-22 19:00:00 20.3 13.4 15.9--- 6520.0wxwxwxwxwx3wx--31019.9 991.8 0.3---------
2019-06-22 18:00:00 22.1 14.1 17.0 24.6 17.0- 6140.0wxwxwxwxwx3wx--31019.4 991.5 0.0- 0.112------
2019-06-22 17:00:00 23.3 15.7 18.3--- 6240.0wxwxwxwxwx2wx--21019.4 991.6 -0.3---------
2019-06-22 16:00:00 23.4 15.0 18.0--- 5935.0wxwxwxwxwx2wx--21019.3 991.5 -0.8---------
2019-06-22 15:00:00 24.3 15.1 18.4--- 5745.0wxwxwxwx3wx--31019.2 991.5 -1.2---------
2019-06-22 14:00:00 23.5 15.4 18.2--- 6030.0wxwxwxwx2wx--21019.7 991.9 -1.1---------
2019-06-22 13:00:00 23.2 15.6 18.2--- 6235.0wxwxwxwx3wx--31020.1 992.3 -0.7---------
2019-06-22 12:00:00 23.1 16.3 18.6--- 6635.0wxwxwxwx3wx--31020.5 992.7 -0.1- 0.16wx-w1--
2019-06-22 11:00:00 22.3 16.4 18.3--- 6935.0wxwxwxwx2wx---1020.9 993.0 0.5---------
2019-06-22 10:00:00 21.3 16.4 18.0--- 7430.0wxwxwxwx2wx--21021.0 993.0 0.8---------
2019-06-22 09:00:00 20.3 17.0 18.0--- 8126.0wxwxwxwx3wx--31020.9 992.8 1.0---wx-w1--
2019-06-22 08:00:00 18.2 16.6 17.0--- 9013.0wxwxwxwx4wx--41020.8 992.5 1.1---wx---
2019-06-22 07:00:00 17.7 16.7 17.0--- 9412.0wxwxwxwx4wx--41020.6 992.2 1.3---------
2019-06-22 06:00:00 17.0 16.3 16.5 18.5 16.6 16 9611.0wxwxwxwx3wx---1020.2 991.8 1.3 17.5 17.524wx-- 4.1
2019-06-22 05:00:00 16.9 16.4 16.5--- 9712.0wxwxwxwx3wx--31019.8 991.4 1.6---wx-w1w2--
2019-06-22 04:00:00 17.1 16.9 16.9--- 999.0wxwxwx3wx--31019.3 990.9 1.2---wx---
2019-06-22 03:00:00 17.0 16.8 16.8--- 997.0wxwxwx3wx--31018.9 990.5 1.5---wx---
2019-06-22 02:00:00 17.0 16.8 16.8--- 998.0wxwxwxwx3wx--31018.2 989.8 1.3---wx---
2019-06-22 01:00:00 16.8 16.7 16.7--- 994.0wx-wxwx3wx--31018.1 989.7 1.0---wx---
2019-06-22 00:00:00 16.7 16.6 16.6--- 994.0wx-wxwx2wx--21017.4 989.0 0.7- 0.06wx---
2019-06-21 23:00:00 17.0 16.8 16.8--- 994.0wx-wx1wx--11016.8 988.5 0.2---wx---
2019-06-21 22:00:00 17.3 17.1 17.1--- 995.0wx-wx1wx--11017.0 988.7 1.4---wx---
2019-06-21 21:00:00 17.3 16.9 17.0--- 987.0wx-wxwx1wx--11016.6 988.3 0.6---wx---
2019-06-21 20:00:00 17.6 17.2 17.3--- 989.0wx-wx3wx--31016.6 988.3 0.9---wx---
2019-06-21 19:00:00 17.8 17.3 17.4--- 978.0wx-wx2wx--21015.5 987.3 0.8---wx---
2019-06-21 18:00:00 18.5 17.8 18.0 27.3 18.5- 969.0wx-wx3wx-1231015.8 987.7 1.1- 17.012wx-w1w2--
2019-06-21 17:00:00 19.0 18.4 18.6--- 968.0wxwxwxwx3wx---1015.5 987.4 0.7---wx---
2019-06-21 16:00:00 19.3 18.2 18.5--- 9320.0wxwxwxwx1wx--11014.5 986.5 -0.3---wx-w1w2--
2019-06-21 15:00:00 19.0 18.1 18.3--- 9512.0wxwxwxwx1wx---1014.7 986.6 0.8---wx-w1w2--
2019-06-21 14:00:00 19.2 18.6 18.8--- 969.0wxwxwxwx1wx--11014.8 986.7 0.8---wx-w1w2--
2019-06-21 13:00:00 19.0 16.7 17.4--- 874.0wxwxwx4wx101241014.9 986.8 0.4---wx-w1w2--
2019-06-21 12:00:00 25.8 19.1 21.2--- 6720.0wxwxwxwx1wx--11013.2 985.8 -0.6- 0.06wx---
2019-06-21 11:00:00 27.1 17.9 21.0--- 5724.0wxwxwxwxwx2wx---1013.2 985.9 -0.3---------
2019-06-21 10:00:00 25.8 18.8 21.0--- 6525.0wxwxwxwx2wx---1013.8 986.4 0.4---------
2019-06-21 09:00:00 25.4 18.7 20.8--- 6722.0wxwxwxwx1wx--11013.9 986.4 0.4---------
2019-06-21 08:00:00 23.9 19.9 21.1--- 7817.0wxwxwxwx2wx--21013.8 986.2 0.6---------
2019-06-21 07:00:00 21.5 19.2 19.8--- 8713.0wxwxwxwx3wx--31013.8 986.0 0.7---------
2019-06-21 06:00:00 20.5 18.7 19.2 22.5 16.5 15 8916.0wxwxwxwx1wx--11013.9 986.0 1.1- 0.012----- 7.3
2019-06-21 05:00:00 19.2 17.6 18.0--- 9020.0wxwxwxwx2wx--21013.6 985.6 0.9---------
2019-06-21 04:00:00 18.1 17.2 17.4--- 9415.0wx-wx1wx--11013.4 985.3 0.6---------
2019-06-21 03:00:00 17.4 16.9 17.0--- 9710.0wx-wx2wx--21013.1 984.9 0.9---------
2019-06-21 02:00:00 17.6 16.7 16.9--- 9412.0wx-wxwx1wx--11012.9 984.7 0.3---------
2019-06-21 01:00:00 17.2 16.5 16.7--- 9612.0wx-wxwx1wx--11012.9 984.7 0.1---------
2019-06-21 00:00:00 18.2 16.6 17.0--- 9014.0wx-wx1wx--11012.1 984.0 -0.4- 0.06wx-w1--
1.1 ms

 

Print Friendly, PDF & Email